Time;durP1;ratioP1;P1;durP2;ratioP2;P2;SDS_P1;SDS_P2;PMS_P1;PMS_P2;Temp;Humidity;BMP_temperature;BMP_pressure;BME280_temperature;BME280_humidity;BME280_pressure;Samples;Min_cycle;Max_cycle;Signal;HPM_P1;HPM_P2
2022/03/26 00:00:50;;;;;;;48.10;30.58;;;;;;;4.69;69.79;101930.75;4923921;29;20136;-75
2022/03/26 00:03:15;;;;;;;46.55;30.55;;;;;;;4.71;70.12;101924.75;4926071;29;20394;-75
2022/03/26 00:05:41;;;;;;;53.40;33.13;;;;;;;4.72;70.22;101923.94;4922941;29;20043;-75
2022/03/26 00:08:07;;;;;;;55.88;32.58;;;;;;;4.76;70.79;101927.56;4923460;29;20519;-75
2022/03/26 00:10:32;;;;;;;51.15;31.35;;;;;;;4.76;70.11;101920.59;4924712;29;20032;-74
2022/03/26 00:12:58;;;;;;;51.72;32.15;;;;;;;4.76;70.02;101920.59;4923157;29;20490;-75
2022/03/26 00:15:24;;;;;;;50.45;31.05;;;;;;;4.72;69.66;101915.19;4925812;29;20047;-74
2022/03/26 00:17:49;;;;;;;48.65;30.88;;;;;;;4.66;70.02;101915.81;4923217;29;20036;-74
2022/03/26 00:20:14;;;;;;;44.13;27.92;;;;;;;4.57;70.58;101920.69;4924573;29;20647;-75
2022/03/26 00:22:40;;;;;;;46.72;29.77;;;;;;;4.49;70.88;101920.38;4924681;29;20046;-75
2022/03/26 00:25:06;;;;;;;46.67;28.88;;;;;;;4.49;71.28;101919.50;4923049;29;20119;-75
2022/03/26 00:27:32;;;;;;;51.03;30.70;;;;;;;4.52;71.06;101912.66;4903438;29;20052;-75
2022/03/26 00:29:57;;;;;;;54.63;29.83;;;;;;;4.53;72.13;101914.47;4923552;29;20135;-75
2022/03/26 00:32:23;;;;;;;53.60;31.90;;;;;;;4.42;71.72;101920.97;4924204;29;20038;-74
2022/03/26 00:34:48;;;;;;;55.20;32.53;;;;;;;4.41;71.01;101918.28;4923238;29;20463;-75
2022/03/26 00:37:14;;;;;;;55.55;35.67;;;;;;;4.41;71.26;101913.06;4921182;29;20108;-75
2022/03/26 00:39:41;;;;;;;54.33;32.38;;;;;;;4.39;71.34;101920.84;4925709;29;20044;-75
2022/03/26 00:42:08;;;;;;;52.30;31.83;;;;;;;4.36;71.46;101918.09;4923809;29;20036;-75
2022/03/26 00:44:35;;;;;;;56.97;32.88;;;;;;;4.24;72.67;101922.81;4923197;29;20031;-75
2022/03/26 00:47:00;;;;;;;46.03;29.08;;;;;;;4.21;73.04;101923.56;4925524;29;20118;-75
2022/03/26 00:49:25;;;;;;;45.30;28.88;;;;;;;4.21;72.86;101928.78;4923454;29;20414;-75
2022/03/26 00:51:51;;;;;;;48.08;30.55;;;;;;;4.25;73.20;101928.09;4923989;29;20570;-75
2022/03/26 00:54:16;;;;;;;47.35;30.25;;;;;;;4.29;73.20;101924.78;4924813;29;20417;-75
2022/03/26 00:56:43;;;;;;;47.03;29.08;;;;;;;4.33;72.80;101921.47;4922511;29;20506;-75
2022/03/26 00:59:08;;;;;;;45.58;29.92;;;;;;;4.34;72.33;101922.38;4925473;29;20067;-75
2022/03/26 01:01:34;;;;;;;51.33;31.15;;;;;;;4.36;72.25;101925.94;4921747;29;20071;-74
2022/03/26 01:04:00;;;;;;;49.78;31.77;;;;;;;4.34;72.15;101925.88;4924457;29;20687;-74
2022/03/26 01:06:26;;;;;;;52.15;31.80;;;;;;;4.30;71.94;101921.34;4922921;29;20034;-74
2022/03/26 01:08:52;;;;;;;46.72;30.00;;;;;;;4.27;72.42;101916.00;4921625;29;20044;-74
2022/03/26 01:11:20;;;;;;;48.78;33.03;;;;;;;4.27;72.95;101921.22;4927853;29;20040;-75
2022/03/26 01:13:46;;;;;;;46.72;30.27;;;;;;;4.30;72.86;101923.09;4927737;29;20050;-74
2022/03/26 01:16:12;;;;;;;55.17;31.55;;;;;;;4.28;72.50;101920.38;4925988;29;20447;-74
2022/03/26 01:18:38;;;;;;;51.25;30.90;;;;;;;4.27;72.42;101916.00;4928581;29;20131;-74
2022/03/26 01:21:04;;;;;;;48.75;30.67;;;;;;;4.25;72.44;101911.53;4926322;29;20543;-74
2022/03/26 01:23:30;;;;;;;53.10;32.15;;;;;;;4.20;73.00;101916.56;4926876;29;20040;-74
2022/03/26 01:25:55;;;;;;;56.15;33.67;;;;;;;4.21;73.00;101926.19;4928341;29;20127;-74
2022/03/26 01:28:20;;;;;;;45.80;29.25;;;;;;;4.16;72.53;101917.25;4925530;29;20051;-75
2022/03/26 01:30:46;;;;;;;43.92;28.63;;;;;;;4.06;72.27;101920.31;4926727;29;20063;-74
2022/03/26 01:33:11;;;;;;;48.63;31.33;;;;;;;4.01;72.54;101921.81;4926479;29;20040;-74
2022/03/26 01:35:37;;;;;;;55.65;33.47;;;;;;;3.98;72.62;101916.47;4926359;29;20075;-74
2022/03/26 01:38:04;;;;;;;50.28;31.88;;;;;;;3.92;72.69;101923.22;4925535;29;20087;-74
2022/03/26 01:40:30;;;;;;;53.33;30.20;;;;;;;3.85;73.24;101921.19;4922270;29;20384;-74
2022/03/26 01:42:55;;;;;;;53.53;33.17;;;;;;;3.84;74.15;101914.16;4926982;29;20048;-74
2022/03/26 01:45:21;;;;;;;49.33;30.73;;;;;;;3.89;74.34;101925.69;4927153;29;20052;-74
2022/03/26 01:47:46;;;;;;;48.40;31.20;;;;;;;3.91;74.07;101921.44;4925456;29;20099;-74
2022/03/26 01:50:11;;;;;;;48.17;30.73;;;;;;;3.84;73.29;101915.88;4928049;29;20525;-74
2022/03/26 01:52:37;;;;;;;51.45;31.13;;;;;;;3.78;73.90;101921.75;4925520;29;20087;-74
2022/03/26 01:55:04;;;;;;;56.08;32.15;;;;;;;3.80;74.15;101907.03;4926685;29;20039;-75
2022/03/26 01:57:30;;;;;;;53.20;33.75;;;;;;;3.83;73.90;101907.16;4927336;29;20043;-74
2022/03/26 01:59:57;;;;;;;54.22;32.67;;;;;;;3.82;74.54;101902.75;4924978;29;20040;-74
2022/03/26 02:02:23;;;;;;;54.78;33.67;;;;;;;3.84;74.33;101903.72;4925753;29;20047;-75
2022/03/26 02:04:49;;;;;;;57.42;34.28;;;;;;;3.83;74.42;101896.72;4926314;29;20040;-75
2022/03/26 02:07:14;;;;;;;56.95;31.85;;;;;;;3.74;73.53;101891.09;4924815;29;20453;-75
2022/03/26 02:09:39;;;;;;;44.53;28.60;;;;;;;3.69;73.72;101892.59;4927761;29;20040;-75
2022/03/26 02:12:24;;;;;;;49.67;30.42;;;;;;;3.62;73.95;101886.25;4924718;29;20123;-75
2022/03/26 02:14:50;;;;;;;45.40;29.17;;;;;;;3.55;74.10;101904.19;4924743;29;20040;-75
2022/03/26 02:17:17;;;;;;;55.08;32.97;;;;;;;3.48;75.02;101905.59;4926692;29;20042;-75
2022/03/26 02:19:50;;;;;;;55.53;32.75;;;;;;;3.45;76.19;101898.53;4933514;23;20056;-72
2022/03/26 02:22:15;;;;;;;55.70;33.65;;;;;;;3.49;76.19;101903.06;4915970;29;20147;-72
2022/03/26 02:24:41;;;;;;;57.25;33.88;;;;;;;3.56;76.34;101900.72;4916311;29;20493;-71
2022/03/26 02:27:07;;;;;;;53.83;33.58;;;;;;;3.64;76.18;101907.19;4916384;29;20040;-72
2022/03/26 02:29:32;;;;;;;55.92;34.63;;;;;;;3.68;75.59;101891.72;4912511;29;20563;-72
2022/03/26 02:31:58;;;;;;;52.00;31.75;;;;;;;3.69;75.93;101895.22;4908057;29;20060;-72
2022/03/26 02:34:24;;;;;;;53.55;32.75;;;;;;;3.69;76.31;101897.81;4905723;29;20180;-72
2022/03/26 02:36:53;;;;;;;50.70;31.75;;;;;;;3.70;75.81;101894.41;4906002;29;20111;-72
2022/03/26 02:39:19;;;;;;;55.30;32.42;;;;;;;3.68;76.25;101885.59;4904132;29;20193;-72
2022/03/26 02:41:44;;;;;;;61.13;34.50;;;;;;;3.69;75.80;101883.06;4904898;29;20052;-72
2022/03/26 02:44:09;;;;;;;55.80;35.03;;;;;;;3.70;75.88;101881.34;4907838;29;20095;-72
2022/03/26 02:46:37;;;;;;;55.63;35.50;;;;;;;3.71;75.97;101878.78;4904798;29;20048;-72
2022/03/26 02:49:02;;;;;;;56.70;33.83;;;;;;;3.67;75.69;101889.94;4904340;29;20059;-72
2022/03/26 02:51:27;;;;;;;59.42;36.10;;;;;;;3.62;75.78;101883.63;4904719;29;20612;-72
2022/03/26 02:53:52;;;;;;;54.75;33.35;;;;;;;3.57;75.69;101884.25;4908733;29;20523;-72
2022/03/26 02:56:19;;;;;;;55.35;33.42;;;;;;;3.56;75.29;101882.44;4907040;29;20036;-72
2022/03/26 02:58:46;;;;;;;54.15;34.15;;;;;;;3.54;75.74;101882.41;4906693;29;20048;-72
2022/03/26 03:01:13;;;;;;;59.50;35.72;;;;;;;3.51;76.13;101884.84;4905025;29;20440;-72
2022/03/26 03:03:38;;;;;;;57.45;32.28;;;;;;;3.48;76.66;101888.25;4905540;29;20119;-72
2022/03/26 03:06:03;;;;;;;56.85;34.95;;;;;;;3.47;76.73;101894.28;4906998;29;20123;-72
2022/03/26 03:08:29;;;;;;;60.10;35.25;;;;;;;3.43;76.62;101888.84;4903716;29;20068;-72
2022/03/26 03:10:54;;;;;;;56.85;33.78;;;;;;;3.42;76.30;101887.06;4905028;29;20041;-73
2022/03/26 03:13:21;;;;;;;52.60;32.40;;;;;;;3.41;77.00;101886.19;4907735;29;20096;-72
2022/03/26 03:15:48;;;;;;;59.83;34.47;;;;;;;3.47;76.75;101883.84;4905361;29;20415;-72
2022/03/26 03:18:13;;;;;;;57.83;34.38;;;;;;;3.50;76.36;101883.97;4906162;29;20036;-72
2022/03/26 03:20:38;;;;;;;52.35;33.13;;;;;;;3.53;76.73;101890.16;4906717;29;20047;-72
2022/03/26 03:23:05;;;;;;;53.05;31.35;;;;;;;3.50;76.55;101886.56;4904324;29;20052;-72
2022/03/26 03:25:30;;;;;;;59.17;34.33;;;;;;;3.49;76.85;101876.09;4907131;29;20050;-72
2022/03/26 03:27:57;;;;;;;56.50;33.13;;;;;;;3.53;77.23;101890.16;4905560;29;20040;-72
2022/03/26 03:30:22;;;;;;;60.33;35.53;;;;;;;3.53;76.64;101895.38;4910110;29;20123;-72
2022/03/26 03:32:47;;;;;;;58.08;33.58;;;;;;;3.55;76.66;101892.00;4907557;29;20132;-72
2022/03/26 03:35:12;;;;;;;61.67;34.72;;;;;;;3.54;76.33;101889.31;4904515;29;20115;-72
2022/03/26 03:37:38;;;;;;;60.70;36.75;;;;;;;3.54;76.03;101886.72;4904368;29;20087;-72
2022/03/26 03:40:05;;;;;;;54.53;33.22;;;;;;;3.50;76.16;101881.34;4905586;29;20028;-72
2022/03/26 03:42:30;;;;;;;56.03;33.90;;;;;;;3.46;76.49;101886.41;4906567;29;20044;-72
2022/03/26 03:44:56;;;;;;;56.47;35.13;;;;;;;3.33;76.77;101878.81;4904596;29;20444;-72
2022/03/26 03:47:21;;;;;;;56.47;33.38;;;;;;;3.20;76.05;101880.00;4902510;29;20447;-72
2022/03/26 03:49:46;;;;;;;61.90;35.70;;;;;;;3.19;76.30;101883.41;4905073;29;20052;-72
2022/03/26 03:52:12;;;;;;;56.60;33.70;;;;;;;3.18;76.32;101887.75;4904918;29;20074;-71
2022/03/26 03:54:37;;;;;;;59.67;34.83;;;;;;;3.15;75.86;101881.50;4904264;29;20060;-72
2022/03/26 03:57:03;;;;;;;50.50;32.03;;;;;;;3.11;77.07;101875.25;4907077;29;20084;-72
2022/03/26 03:59:28;;;;;;;60.50;32.85;;;;;;;3.07;76.56;101875.94;4905759;29;20068;-72
2022/03/26 04:01:53;;;;;;;59.08;32.95;;;;;;;3.05;77.21;101882.81;4905056;29;20037;-72
2022/03/26 04:04:18;;;;;;;51.63;30.95;;;;;;;3.07;77.38;101884.66;4904771;29;20105;-72
2022/03/26 04:06:44;;;;;;;56.33;34.45;;;;;;;3.12;77.50;101883.94;4905965;29;20048;-72
2022/03/26 04:09:09;;;;;;;58.70;36.05;;;;;;;3.17;77.84;101880.75;4904080;29;20103;-72
2022/03/26 04:11:34;;;;;;;59.97;35.47;;;;;;;3.18;77.25;101879.94;4901850;29;20598;-72
2022/03/26 04:14:00;;;;;;;57.45;33.35;;;;;;;3.19;77.52;101884.31;4905413;29;20036;-72
2022/03/26 04:16:25;;;;;;;57.20;34.30;;;;;;;3.17;77.03;101885.97;4904347;29;20055;-72
2022/03/26 04:18:50;;;;;;;55.78;34.15;;;;;;;3.20;77.59;101886.13;4903322;29;20036;-72
2022/03/26 04:21:16;;;;;;;54.10;32.92;;;;;;;3.22;77.28;101883.56;4905845;29;20040;-72
2022/03/26 04:23:42;;;;;;;58.03;31.00;;;;;;;3.21;77.44;101884.38;4895239;29;20043;-72
2022/03/26 04:26:10;;;;;;;55.83;33.60;;;;;;;3.22;77.93;101883.56;4905765;29;20043;-72
2022/03/26 04:28:36;;;;;;;60.53;34.05;;;;;;;3.19;77.21;101883.41;4903129;29;20043;-71
2022/03/26 04:31:04;;;;;;;64.72;37.72;;;;;;;3.19;77.28;101881.69;4903675;29;20032;-72
2022/03/26 04:33:29;;;;;;;52.00;33.63;;;;;;;3.18;76.69;101892.09;4905251;29;20043;-72
2022/03/26 04:35:55;;;;;;;53.65;33.30;;;;;;;3.14;76.54;101879.72;4906079;29;20044;-72
2022/03/26 04:38:20;;;;;;;56.92;34.72;;;;;;;3.08;76.56;101882.94;4903777;29;20397;-72
2022/03/26 04:40:46;;;;;;;60.28;35.95;;;;;;;3.07;76.96;101878.56;4906465;29;20530;-72
2022/03/26 04:43:13;;;;;;;62.78;34.80;;;;;;;3.06;77.07;101882.84;4905305;29;20045;-72
2022/03/26 04:45:38;;;;;;;58.72;34.83;;;;;;;3.03;77.56;101887.94;4908326;29;20048;-72
2022/03/26 04:48:04;;;;;;;59.20;35.25;;;;;;;3.06;77.07;101898.50;4908828;29;20048;-72
2022/03/26 04:50:30;;;;;;;50.90;32.67;;;;;;;3.06;76.90;101893.28;4903716;29;20127;-72
2022/03/26 04:52:55;;;;;;;57.60;34.17;;;;;;;3.05;76.35;101896.72;4907880;29;20176;-72
2022/03/26 04:55:20;;;;;;;67.55;37.17;;;;;;;3.06;76.33;101892.41;4908865;29;20036;-72
2022/03/26 04:57:48;;;;;;;62.42;36.50;;;;;;;3.06;76.15;101898.50;4907730;29;20037;-72
2022/03/26 05:00:15;;;;;;;58.38;35.63;;;;;;;3.06;76.56;101893.28;4910012;29;20504;-72
2022/03/26 05:02:41;;;;;;;55.05;32.22;;;;;;;3.06;75.94;101893.28;4907630;29;20037;-72
2022/03/26 05:05:07;;;;;;;62.95;35.17;;;;;;;3.05;76.76;101894.13;4908345;29;20044;-72
2022/03/26 05:07:48;;;;;;;56.85;35.00;;;;;;;3.05;76.92;101891.50;4909592;29;20087;-72
2022/03/26 05:10:22;;;;;;;60.95;34.13;;;;;;;3.11;76.33;101905.66;4907366;29;20104;-72
2022/03/26 05:12:49;;;;;;;67.28;36.53;;;;;;;3.12;77.16;101900.53;4906720;29;20090;-72
2022/03/26 05:15:16;;;;;;;65.45;36.08;;;;;;;3.17;77.33;101908.53;4908813;29;20407;-72
2022/03/26 05:17:41;;;;;;;60.35;35.75;;;;;;;3.20;77.22;101906.09;4904164;29;20050;-72
2022/03/26 05:20:09;;;;;;;64.07;36.15;;;;;;;3.25;77.03;101901.97;4907284;29;20043;-73
2022/03/26 05:22:35;;;;;;;60.22;35.03;;;;;;;3.31;76.53;101907.47;4903674;29;20538;-72
2022/03/26 05:25:01;;;;;;;57.00;35.22;;;;;;;3.34;76.25;101902.38;4908599;29;20570;-74
2022/03/26 05:27:27;;;;;;;58.92;33.45;;;;;;;3.41;76.36;101911.41;4908641;29;20048;-73
2022/03/26 05:29:52;;;;;;;54.17;33.78;;;;;;;3.44;76.66;101909.81;4906654;29;20048;-74
2022/03/26 05:32:18;;;;;;;55.95;34.15;;;;;;;3.47;77.31;101909.06;4909224;29;20044;-73
2022/03/26 05:34:46;;;;;;;55.05;32.65;;;;;;;3.54;76.69;101916.34;4907508;29;20043;-73
2022/03/26 05:37:12;;;;;;;61.38;34.38;;;;;;;3.60;76.81;101915.72;4907412;29;20083;-73
2022/03/26 05:39:38;;;;;;;56.08;33.08;;;;;;;3.64;76.34;101910.69;4909173;29;20091;-74
2022/03/26 05:42:04;;;;;;;74.78;37.25;;;;;;;3.69;76.70;101903.97;4906144;29;20399;-73
2022/03/26 05:44:30;;;;;;;60.28;34.40;;;;;;;3.78;76.35;101902.56;4908322;29;20040;-73
2022/03/26 05:46:55;;;;;;;56.05;34.63;;;;;;;3.86;75.94;101899.47;4894753;29;20037;-73
2022/03/26 05:49:21;;;;;;;56.65;33.88;;;;;;;3.97;76.06;101906.88;4905922;29;20515;-73
2022/03/26 05:51:47;;;;;;;59.78;37.40;;;;;;;4.07;76.11;101914.28;4905471;29;20040;-73
2022/03/26 05:54:13;;;;;;;67.60;38.33;;;;;;;4.15;75.84;101916.38;4907473;29;20455;-73
2022/03/26 05:56:39;;;;;;;56.78;34.65;;;;;;;4.23;75.64;101908.84;4907562;29;20123;-74
2022/03/26 05:59:10;;;;;;;56.65;34.42;;;;;;;4.33;75.44;101917.97;4908614;29;20444;-73
2022/03/26 06:01:36;;;;;;;59.40;34.30;;;;;;;4.43;74.97;101914.91;4903402;29;20446;-73
2022/03/26 06:04:02;;;;;;;58.33;32.03;;;;;;;4.50;74.82;101914.31;4905353;29;20288;-73
2022/03/26 06:06:28;;;;;;;61.58;34.35;;;;;;;4.59;75.05;101919.03;4905359;29;20781;-75
2022/03/26 06:08:53;;;;;;;55.22;33.17;;;;;;;4.67;74.57;101925.47;4906895;29;20036;-75
2022/03/26 06:11:19;;;;;;;57.83;34.70;;;;;;;4.75;74.79;101926.66;4904065;29;20028;-76
2022/03/26 06:13:44;;;;;;;54.53;32.92;;;;;;;4.88;74.29;101932.41;4906622;29;20044;-75
2022/03/26 06:16:10;;;;;;;61.50;36.55;;;;;;;4.97;74.05;101927.50;4904413;29;20044;-75
2022/03/26 06:18:35;;;;;;;56.22;36.10;;;;;;;5.02;73.82;101925.97;4904597;29;20075;-75
2022/03/26 06:21:01;;;;;;;56.42;34.88;;;;;;;5.09;73.78;101928.00;4908167;29;20043;-76
2022/03/26 06:23:27;;;;;;;61.53;35.92;;;;;;;5.16;73.81;101930.03;4905959;29;20045;-75
2022/03/26 06:25:52;;;;;;;57.88;32.85;;;;;;;5.25;73.48;101929.47;4907558;29;20040;-75
2022/03/26 06:28:19;;;;;;;57.05;34.58;;;;;;;5.33;73.61;101932.38;4909322;29;20044;-75
2022/03/26 06:30:46;;;;;;;59.05;34.15;;;;;;;5.39;73.57;101930.84;4905647;29;20527;-75
2022/03/26 06:33:13;;;;;;;57.45;34.47;;;;;;;5.50;73.50;101936.50;4905485;29;20044;-75
2022/03/26 06:35:38;;;;;;;57.58;34.05;;;;;;;5.59;73.50;101939.47;4901397;29;20069;-76
2022/03/26 06:38:04;;;;;;;55.47;34.40;;;;;;;5.67;73.50;101945.00;4901918;29;20040;-73
2022/03/26 06:40:29;;;;;;;56.90;35.28;;;;;;;5.77;72.88;101952.34;4904012;29;20044;-73
2022/03/26 06:42:55;;;;;;;54.97;34.25;;;;;;;5.81;72.68;101953.34;4904776;29;20499;-73
2022/03/26 06:45:20;;;;;;;60.20;34.05;;;;;;;5.87;72.45;101950.97;4906946;29;20075;-73
2022/03/26 06:47:46;;;;;;;55.28;32.10;;;;;;;5.98;72.54;101952.25;4907535;29;20133;-73
2022/03/26 06:50:11;;;;;;;57.83;33.88;;;;;;;6.09;71.90;101945.66;4904162;29;20462;-74
2022/03/26 06:52:36;;;;;;;58.97;38.03;;;;;;;6.17;71.81;101952.91;4906161;29;20403;-74
2022/03/26 06:55:04;;;;;;;54.00;33.85;;;;;;;6.24;71.73;101949.66;4906372;29;20047;-73
2022/03/26 06:57:29;;;;;;;50.10;31.42;;;;;;;6.32;71.47;101937.69;4906796;29;20048;-73
2022/03/26 06:59:54;;;;;;;60.67;34.30;;;;;;;6.40;71.23;101935.31;4907977;29;20048;-76
2022/03/26 07:02:19;;;;;;;54.42;33.75;;;;;;;6.42;71.50;101929.28;4904843;29;20044;-76
2022/03/26 07:04:45;;;;;;;58.88;36.47;;;;;;;6.51;71.67;101928.69;4904256;29;20037;-76
2022/03/26 07:07:14;;;;;;;57.50;34.72;;;;;;;6.60;71.95;101931.59;4898553;29;20104;-74
2022/03/26 07:09:39;;;;;;;52.58;34.38;;;;;;;6.75;71.47;101939.09;4903132;29;20199;-74
2022/03/26 07:12:05;;;;;;;54.95;33.70;;;;;;;6.87;70.94;101938.59;4901021;29;20115;-74
2022/03/26 07:14:30;;;;;;;55.13;34.33;;;;;;;6.96;70.71;101949.38;4904267;29;20119;-74
2022/03/26 07:16:55;;;;;;;56.95;35.97;;;;;;;7.05;70.56;101938.25;4902948;29;20096;-74
2022/03/26 07:19:22;;;;;;;52.53;34.28;;;;;;;7.17;69.84;101944.78;4906518;29;20047;-74
2022/03/26 07:21:47;;;;;;;58.58;34.38;;;;;;;7.25;70.00;101939.75;4903955;29;20036;-74
2022/03/26 07:24:12;;;;;;;57.03;35.72;;;;;;;7.35;69.96;101939.19;4896888;29;20563;-74
2022/03/26 07:26:38;;;;;;;54.95;35.95;;;;;;;7.53;69.55;101944.09;4896899;29;20411;-74
2022/03/26 07:29:03;;;;;;;55.85;35.78;;;;;;;7.66;69.66;101940.97;4898432;29;20124;-74
2022/03/26 07:31:28;;;;;;;60.00;34.90;;;;;;;7.79;69.25;101934.31;4895948;29;20224;-74
2022/03/26 07:33:54;;;;;;;53.35;34.25;;;;;;;7.89;68.58;101943.34;4894959;29;20078;-74
2022/03/26 07:36:19;;;;;;;57.15;35.35;;;;;;;8.02;67.72;101939.31;4895197;29;20056;-74
2022/03/26 07:38:44;;;;;;;57.30;35.92;;;;;;;8.15;68.01;101940.50;4893442;29;20084;-74
2022/03/26 07:41:10;;;;;;;57.22;33.67;;;;;;;8.31;67.50;101938.34;4898003;29;20115;-74
2022/03/26 07:43:35;;;;;;;52.83;33.75;;;;;;;8.41;67.48;101931.59;4905086;29;20048;-74
2022/03/26 07:46:01;;;;;;;60.20;35.03;;;;;;;8.50;67.09;101946.72;4905552;29;20055;-74
2022/03/26 07:48:26;;;;;;;53.33;34.65;;;;;;;8.58;66.84;101931.13;4903111;29;20036;-74
2022/03/26 07:50:52;;;;;;;55.08;34.55;;;;;;;8.69;66.38;101935.78;4903599;29;20060;-74
2022/03/26 07:53:17;;;;;;;56.00;35.53;;;;;;;8.81;66.59;101935.19;4901948;29;20041;-74
2022/03/26 07:55:43;;;;;;;63.60;36.25;;;;;;;8.89;66.01;101938.00;4899725;29;20151;-74
2022/03/26 07:58:08;;;;;;;54.55;35.45;;;;;;;9.03;66.39;101940.97;4894238;29;20507;-74
2022/03/26 08:00:33;;;;;;;63.75;36.08;;;;;;;9.20;65.26;101943.13;4904941;29;20036;-74
2022/03/26 08:02:59;;;;;;;54.58;34.95;;;;;;;9.34;65.10;101942.53;4905423;29;20036;-74
2022/03/26 08:05:24;;;;;;;55.03;35.70;;;;;;;9.49;64.75;101940.22;4905093;29;20055;-74
2022/03/26 08:07:50;;;;;;;53.53;34.90;;;;;;;9.61;64.22;101943.09;4906764;29;20039;-75
2022/03/26 08:10:15;;;;;;;62.80;37.00;;;;;;;9.73;64.00;101942.47;4902638;29;20521;-75
2022/03/26 08:12:40;;;;;;;58.95;34.28;;;;;;;9.85;63.99;101931.25;4906002;29;20559;-74
2022/03/26 08:15:06;;;;;;;53.17;34.83;;;;;;;10.02;63.06;101932.47;4899864;29;20527;-74
2022/03/26 08:17:31;;;;;;;61.08;36.03;;;;;;;10.09;62.76;101937.00;4898250;29;20063;-75
2022/03/26 08:19:57;;;;;;;54.88;35.03;;;;;;;10.24;63.21;101932.84;4899598;29;20076;-73
2022/03/26 08:22:22;;;;;;;63.35;37.65;;;;;;;10.42;62.91;101930.56;4901549;29;20033;-73
2022/03/26 08:24:47;;;;;;;55.63;34.45;;;;;;;10.58;61.63;101925.53;4899250;29;20108;-73
2022/03/26 08:27:13;;;;;;;57.67;34.60;;;;;;;10.72;61.47;101930.19;4897025;29;20040;-73
2022/03/26 08:29:38;;;;;;;50.33;34.55;;;;;;;10.87;61.03;101925.97;4898363;29;20047;-73
2022/03/26 08:32:05;;;;;;;52.15;34.38;;;;;;;10.93;61.01;101924.34;4899633;29;20025;-73
2022/03/26 08:34:31;;;;;;;50.97;33.28;;;;;;;11.11;59.28;101925.47;4897590;29;20029;-73
2022/03/26 08:36:56;;;;;;;56.97;31.77;;;;;;;11.20;59.58;101930.88;4898762;29;20522;-73
2022/03/26 08:39:22;;;;;;;49.88;31.02;;;;;;;11.36;59.28;101930.19;4898779;29;20032;-73
2022/03/26 08:41:47;;;;;;;48.85;30.20;;;;;;;11.48;57.68;101929.47;4897780;29;20041;-73
2022/03/26 08:44:12;;;;;;;47.72;31.40;;;;;;;11.60;58.01;101928.72;4902119;29;20043;-73
2022/03/26 08:46:38;;;;;;;49.65;30.92;;;;;;;11.71;56.92;101920.91;4899165;29;20029;-73
2022/03/26 08:49:03;;;;;;;44.92;29.50;;;;;;;11.83;56.52;101929.00;4903602;29;20040;-73
2022/03/26 08:51:29;;;;;;;42.75;28.05;;;;;;;11.96;56.37;101920.34;4908750;29;20041;-73
2022/03/26 08:53:54;;;;;;;45.72;29.00;;;;;;;12.15;56.09;101905.53;4909536;29;20095;-73
2022/03/26 08:56:19;;;;;;;47.70;28.95;;;;;;;12.24;56.49;101918.88;4909574;29;20036;-73
2022/03/26 08:58:45;;;;;;;40.30;26.30;;;;;;;12.37;56.37;101905.75;4908292;29;20396;-73
2022/03/26 09:01:11;;;;;;;36.50;24.63;;;;;;;12.45;55.29;101902.28;4907724;29;20045;-73
2022/03/26 09:03:37;;;;;;;40.30;25.85;;;;;;;12.52;55.35;101900.53;4910036;29;20139;-74
2022/03/26 09:06:06;;;;;;;36.22;23.02;;;;;;;12.55;55.36;101894.38;4899140;29;20028;-73
2022/03/26 09:08:32;;;;;;;30.38;21.95;;;;;;;12.64;55.71;101899.75;4907430;29;20394;-73
2022/03/26 09:10:57;;;;;;;31.05;22.45;;;;;;;12.79;56.16;101888.41;4908208;29;20036;-73
2022/03/26 09:13:23;;;;;;;29.00;21.83;;;;;;;12.81;55.37;101895.47;4906206;29;20040;-73
2022/03/26 09:15:48;;;;;;;28.65;20.58;;;;;;;12.80;55.96;101895.47;4905656;29;20115;-73
2022/03/26 09:18:13;;;;;;;27.95;20.20;;;;;;;12.93;55.99;101886.69;4907145;29;20040;-72
2022/03/26 09:20:39;;;;;;;29.98;21.02;;;;;;;13.10;55.14;101890.34;4905967;29;20514;-73
2022/03/26 09:23:05;;;;;;;31.13;20.13;;;;;;;13.12;55.80;101891.22;4903466;29;20488;-72
2022/03/26 09:25:30;;;;;;;32.28;20.23;;;;;;;13.23;55.39;101879.78;4911561;29;20480;-73
2022/03/26 09:27:55;;;;;;;30.85;20.42;;;;;;;13.34;54.93;101886.06;4904038;29;20095;-73
2022/03/26 09:30:20;;;;;;;25.70;18.73;;;;;;;13.40;54.28;101888.72;4902148;29;20050;-74
2022/03/26 09:32:46;;;;;;;29.80;20.02;;;;;;;13.49;53.41;101882.56;4902265;29;20047;-73
2022/03/26 09:35:13;;;;;;;31.27;20.08;;;;;;;13.41;53.62;101887.84;4905345;29;20040;-73
2022/03/26 09:37:40;;;;;;;35.10;24.05;;;;;;;13.58;53.27;101890.56;4904497;29;20072;-72
2022/03/26 09:40:10;;;;;;;24.42;17.90;;;;;;;13.68;53.74;101896.78;4908135;29;20500;-73
2022/03/26 09:42:39;;;;;;;34.53;24.15;;;;;;;13.71;53.50;101875.56;4906981;29;20040;-73
2022/03/26 09:45:06;;;;;;;36.65;28.92;;;;;;;13.79;52.36;101876.47;4901698;29;20480;-74
2022/03/26 09:47:36;;;;;;;49.60;28.10;;;;;;;13.85;53.11;101867.63;4902570;29;20047;-73
2022/03/26 09:50:04;;;;;;;35.88;25.10;;;;;;;14.00;52.76;101872.97;4902047;29;20039;-73
2022/03/26 09:52:29;;;;;;;49.95;34.08;;;;;;;14.13;52.05;101879.19;4907680;29;20051;-73
2022/03/26 09:54:58;;;;;;;32.33;21.58;;;;;;;14.13;51.75;101879.19;4906798;29;20491;-74
2022/03/26 09:57:23;;;;;;;29.83;19.27;;;;;;;14.12;51.21;101891.56;4907125;29;20032;-73
2022/03/26 09:59:49;;;;;;;37.08;23.85;;;;;;;14.13;52.29;101874.75;4905284;29;20036;-74
2022/03/26 10:02:16;;;;;;;37.63;24.73;;;;;;;14.23;50.80;101867.69;4908212;29;20144;-72
2022/03/26 10:04:43;;;;;;;27.65;17.88;;;;;;;14.18;51.11;101882.72;4903089;29;20037;-73
2022/03/26 10:07:08;;;;;;;26.25;18.85;;;;;;;14.16;50.74;101864.13;4906459;29;20047;-73
2022/03/26 10:09:36;;;;;;;30.42;19.00;;;;;;;14.30;51.10;101860.56;4909348;29;20131;-75
2022/03/26 10:12:03;;;;;;;29.05;19.48;;;;;;;14.48;50.25;101847.28;4901626;29;20029;-75
2022/03/26 10:14:45;;;;;;;30.85;20.08;;;;;;;14.52;50.58;101866.78;4904946;29;20092;-73
2022/03/26 10:17:13;;;;;;;31.77;20.30;;;;;;;14.57;50.44;101862.38;4901158;29;20511;-72
2022/03/26 10:19:42;;;;;;;32.22;21.45;;;;;;;14.63;50.15;101859.69;4903316;29;20036;-73
2022/03/26 10:22:33;;;;;;;27.17;18.75;;;;;;;14.59;50.40;101839.31;4903607;29;20043;-73
2022/03/26 10:25:11;;;;;;;31.15;22.00;;;;;;;14.71;50.30;101852.59;4904827;29;20036;-73
2022/03/26 10:27:55;;;;;;;26.05;18.88;;;;;;;14.94;49.97;101852.53;4905258;29;20043;-73
2022/03/26 10:33:21;;;;;;;28.63;18.67;;;;;;;14.99;49.12;101856.06;4907317;29;20047;-73
2022/03/26 10:35:58;;;;;;;26.98;18.33;;;;;;;15.08;49.46;101857.81;4905006;29;20560;-73
2022/03/26 10:38:31;;;;;;;26.67;19.15;;;;;;;15.17;48.59;101843.56;4901207;29;20059;-73
2022/03/26 10:41:02;;;;;;;27.13;18.00;;;;;;;15.14;48.43;101839.16;4905375;29;20043;-73
2022/03/26 10:43:28;;;;;;;25.80;19.73;;;;;;;15.23;48.81;101836.47;4905794;29;20041;-73
2022/03/26 10:45:55;;;;;;;23.85;17.10;;;;;;;15.46;49.30;101824.84;4908312;29;20343;-73
2022/03/26 10:48:35;;;;;;;28.75;17.52;;;;;;;15.59;48.29;101821.22;4905413;29;20389;-73
2022/03/26 10:51:05;;;;;;;26.08;16.98;;;;;;;15.78;47.88;101814.88;4904632;29;20036;-73
2022/03/26 10:53:46;;;;;;;23.35;17.33;;;;;;;15.81;47.84;101805.13;4906915;29;20091;-73
2022/03/26 10:56:13;;;;;;;20.45;16.27;;;;;;;15.92;47.56;101811.25;4902470;29;20460;-73
2022/03/26 10:58:40;;;;;;;27.73;17.98;;;;;;;15.83;48.05;101806.00;4906537;29;20040;-73
2022/03/26 11:01:05;;;;;;;23.23;16.27;;;;;;;16.05;47.46;101812.03;4907057;29;20115;-73
2022/03/26 11:03:32;;;;;;;20.63;15.65;;;;;;;16.24;47.32;101812.75;4904978;29;20044;-73
2022/03/26 11:05:58;;;;;;;21.48;14.57;;;;;;;16.27;46.09;101802.06;4907485;29;20113;-73
2022/03/26 11:08:29;;;;;;;23.15;16.70;;;;;;;16.27;46.30;101794.97;4906289;29;20058;-73
2022/03/26 11:10:59;;;;;;;23.52;15.90;;;;;;;16.39;46.54;101816.13;4904808;29;20042;-73
2022/03/26 11:13:27;;;;;;;21.02;14.50;;;;;;;16.48;46.35;101788.53;4902566;29;20044;-73